Tuthill, South Dakota
Current Conditions -  °F | °C
As of 6:52 AM on Sunday 23 Nov 2014 (Local Time) from KVTN Reporting Station
Clear Clear  
Wind Chill: 30°   Ceiling: Unl
Heat Index: 38°   Visibility: 10mi
Dew Point: 27°   Wind: 14mph
Humidity: 65%   Direction: 320°NW
Pressure: 29.64"   Gusts: 24mph
Location:  43.16°N, 101.5°W
Report Text: KVTN 231352Z AUTO 32012G21KT 10SM CLR 03/M03 A2964 RMK AO2 PK WND 31027/1256 SLP048 T00331028
Loading
Personal Weather Stations






























Interactive Weather Map New forecast layout! Learn more

10-Day Weather Forecast

Advertisements
Track Severe Weather on mobile